Time;durP1;ratioP1;P1;durP2;ratioP2;P2;SDS_P1;SDS_P2;PMS_P1;PMS_P2;Temp;Humidity;BMP_temperature;BMP_pressure;BME280_temperature;BME280_humidity;BME280_pressure;Samples;Min_cycle;Max_cycle;Signal;HPM_P1;HPM_P2
2024/01/29 00:01:13;;;;;;;12.15;6.65;;;;;;;2.70;61.03;96541.91;5046317;28;20484;-71
2024/01/29 00:03:39;;;;;;;11.65;6.45;;;;;;;2.64;61.19;96544.09;5028964;28;20037;-72
2024/01/29 00:06:04;;;;;;;8.50;6.07;;;;;;;2.65;61.25;96551.09;5045340;28;20028;-72
2024/01/29 00:08:30;;;;;;;11.40;6.22;;;;;;;2.72;60.81;96545.06;5046308;28;20028;-72
2024/01/29 00:10:55;;;;;;;9.50;5.75;;;;;;;2.66;60.84;96558.09;5046137;28;20029;-71
2024/01/29 00:13:20;;;;;;;7.07;5.32;;;;;;;2.72;60.71;96561.34;5047330;28;20483;-72
2024/01/29 00:15:46;;;;;;;9.38;6.10;;;;;;;2.66;60.98;96549.94;5044619;28;20111;-73
2024/01/29 00:18:12;;;;;;;11.73;5.78;;;;;;;2.73;60.64;96554.78;5047656;28;20112;-72
2024/01/29 00:20:37;;;;;;;8.68;5.93;;;;;;;2.69;60.81;96559.31;5045029;28;20456;-72
2024/01/29 00:23:02;;;;;;;7.78;5.43;;;;;;;2.67;60.83;96559.69;5046849;28;20032;-71
2024/01/29 00:25:28;;;;;;;8.77;5.78;;;;;;;2.66;60.93;96566.25;5045990;28;20029;-73
2024/01/29 00:27:53;;;;;;;9.70;6.82;;;;;;;2.58;60.95;96569.09;5044547;28;20052;-72
2024/01/29 00:30:19;;;;;;;10.70;6.15;;;;;;;2.64;61.27;96575.88;5045790;28;20029;-72
2024/01/29 00:32:45;;;;;;;9.75;6.15;;;;;;;2.63;60.83;96577.00;5045665;28;20056;-71
2024/01/29 00:35:10;;;;;;;10.10;6.60;;;;;;;2.67;60.74;96567.03;5047477;28;20037;-72
2024/01/29 00:37:35;;;;;;;10.57;6.53;;;;;;;2.72;60.65;96569.50;5044312;28;20345;-72
2024/01/29 00:40:02;;;;;;;10.50;6.05;;;;;;;2.77;60.49;96568.47;5045538;28;20056;-73
2024/01/29 00:42:28;;;;;;;11.10;5.60;;;;;;;2.67;60.59;96572.47;5045170;28;20431;-72
2024/01/29 00:44:53;;;;;;;11.18;6.07;;;;;;;2.73;60.56;96570.28;5046130;28;20025;-71
2024/01/29 00:47:20;;;;;;;10.60;5.90;;;;;;;2.73;60.74;96573.00;5029192;28;20414;-73
2024/01/29 00:49:46;;;;;;;7.43;5.25;;;;;;;2.76;60.54;96569.63;5044373;28;20029;-73
2024/01/29 00:52:11;;;;;;;9.25;5.68;;;;;;;2.81;60.38;96572.88;5047362;28;20037;-72
2024/01/29 00:54:37;;;;;;;7.45;5.75;;;;;;;2.82;60.14;96569.00;5027259;28;20028;-72
2024/01/29 00:57:03;;;;;;;12.38;6.25;;;;;;;2.82;60.23;96577.16;5045882;28;20033;-72
2024/01/29 00:59:28;;;;;;;8.02;5.30;;;;;;;2.81;60.47;96580.19;5044603;28;20036;-72
2024/01/29 01:01:53;;;;;;;9.52;5.35;;;;;;;2.82;60.15;96577.16;5044972;28;20037;-73
2024/01/29 01:04:19;;;;;;;7.43;5.15;;;;;;;2.85;60.15;96581.09;5029066;28;20116;-72
2024/01/29 01:06:45;;;;;;;8.27;5.03;;;;;;;2.76;60.13;96583.97;5044930;28;20029;-71
2024/01/29 01:09:11;;;;;;;9.55;5.90;;;;;;;2.71;60.28;96586.94;5051364;28;20034;-73
2024/01/29 01:11:36;;;;;;;7.75;5.63;;;;;;;2.79;60.13;96577.06;5047885;28;20514;-73
2024/01/29 01:14:02;;;;;;;7.65;5.50;;;;;;;2.70;60.30;96579.94;5049607;28;20491;-71
2024/01/29 01:16:27;;;;;;;8.43;5.57;;;;;;;2.73;60.45;96586.59;5048133;28;20035;-71
2024/01/29 01:18:53;;;;;;;8.20;5.65;;;;;;;2.71;60.59;96586.94;5050794;28;20126;-73
2024/01/29 01:21:19;;;;;;;8.23;5.22;;;;;;;2.64;60.60;96579.41;5050526;28;20078;-72
2024/01/29 01:23:44;;;;;;;9.05;5.70;;;;;;;2.72;60.51;96585.81;5049464;28;20025;-72
2024/01/29 01:26:10;;;;;;;12.10;6.57;;;;;;;2.75;60.42;96581.59;5050891;28;20029;-72
2024/01/29 01:28:35;;;;;;;9.55;5.53;;;;;;;2.65;60.69;96570.09;5047421;28;20029;-72
2024/01/29 01:31:01;;;;;;;9.98;5.88;;;;;;;2.66;60.70;96570.88;5050835;28;20028;-72
2024/01/29 01:33:26;;;;;;;10.60;5.75;;;;;;;2.74;60.59;96575.38;5047442;28;20024;-71
2024/01/29 01:35:51;;;;;;;10.30;5.68;;;;;;;2.66;60.82;96568.97;5050732;28;20361;-71
2024/01/29 01:38:17;;;;;;;9.43;5.28;;;;;;;2.69;60.75;96570.19;5048240;28;20103;-71
2024/01/29 01:40:43;;;;;;;10.65;6.07;;;;;;;2.62;60.68;96565.34;5048170;28;20094;-71
2024/01/29 01:43:24;;;;;;;9.43;5.50;;;;;;;2.65;60.65;96566.59;5050502;28;20032;-71
2024/01/29 01:46:02;;;;;;;10.40;5.60;;;;;;;2.60;60.91;96564.13;5049164;28;20059;-72
2024/01/29 01:48:27;;;;;;;10.45;5.40;;;;;;;2.55;60.92;96577.94;5050062;28;20068;-72
2024/01/29 01:50:53;;;;;;;6.35;4.75;;;;;;;2.60;60.96;96573.06;5047493;28;20510;-72
2024/01/29 01:53:18;;;;;;;7.75;5.25;;;;;;;2.61;60.92;96568.41;5048957;28;20017;-72
2024/01/29 01:55:43;;;;;;;8.85;5.72;;;;;;;2.56;60.90;96557.81;5049453;28;20035;-72
2024/01/29 01:58:10;;;;;;;8.07;5.63;;;;;;;2.56;60.89;96568.66;5049319;28;20318;-71
2024/01/29 02:00:35;;;;;;;9.30;6.15;;;;;;;2.44;61.02;96566.78;5048645;28;20028;-71
2024/01/29 02:03:00;;;;;;;10.23;5.60;;;;;;;2.55;60.73;96564.38;5047125;28;20065;-72
2024/01/29 02:05:26;;;;;;;9.75;5.72;;;;;;;2.51;60.91;96566.19;5049780;28;20041;-72
2024/01/29 02:07:51;;;;;;;7.28;5.35;;;;;;;2.52;61.19;96573.19;5046935;28;20060;-71
2024/01/29 02:10:17;;;;;;;7.68;5.65;;;;;;;2.49;61.11;96574.69;5050202;28;20408;-71
2024/01/29 02:12:42;;;;;;;9.35;4.97;;;;;;;2.49;61.18;96573.91;5048443;28;20079;-72
2024/01/29 02:15:08;;;;;;;8.55;6.05;;;;;;;2.47;61.02;96568.81;5049426;28;20426;-72
2024/01/29 02:17:34;;;;;;;7.40;5.68;;;;;;;2.47;61.25;96573.47;5049570;28;20025;-71
2024/01/29 02:19:59;;;;;;;8.20;5.47;;;;;;;2.53;60.90;96567.44;5029723;28;20036;-72
2024/01/29 02:22:24;;;;;;;7.72;5.35;;;;;;;2.50;60.91;96572.75;5048136;28;20517;-72
2024/01/29 02:24:50;;;;;;;9.10;5.68;;;;;;;2.50;60.96;96583.63;5046776;28;20025;-72
2024/01/29 02:27:15;;;;;;;8.93;5.13;;;;;;;2.52;61.06;96579.41;5049684;28;20091;-72
2024/01/29 02:29:41;;;;;;;9.43;5.20;;;;;;;2.46;61.03;96578.06;5046482;28;20558;-72
2024/01/29 02:32:06;;;;;;;6.90;5.32;;;;;;;2.42;61.18;96579.13;5049445;28;20071;-71
2024/01/29 02:34:31;;;;;;;9.35;5.80;;;;;;;2.42;61.14;96576.41;5048766;28;20408;-73
2024/01/29 02:36:57;;;;;;;10.40;5.88;;;;;;;2.45;61.17;96573.78;5048748;28;20033;-71
2024/01/29 02:39:22;;;;;;;7.55;5.35;;;;;;;2.44;61.05;96576.84;5047901;28;20036;-71
2024/01/29 02:41:47;;;;;;;8.75;6.10;;;;;;;2.46;61.07;96575.38;5046147;28;20104;-71
2024/01/29 02:44:13;;;;;;;10.05;6.45;;;;;;;2.47;61.01;96582.41;5048057;28;20062;-71
2024/01/29 02:46:40;;;;;;;8.38;5.53;;;;;;;2.43;61.00;96575.28;5029507;28;20111;-72
2024/01/29 02:49:05;;;;;;;8.93;5.70;;;;;;;2.47;60.99;96587.03;5047906;28;20052;-72
2024/01/29 02:51:31;;;;;;;9.50;5.93;;;;;;;2.46;60.90;96585.44;5047896;28;20544;-72
2024/01/29 02:53:56;;;;;;;11.60;5.95;;;;;;;2.47;61.04;96592.47;5048745;28;20110;-70
2024/01/29 02:56:22;;;;;;;8.98;5.80;;;;;;;2.45;60.82;96590.06;5049032;28;20475;-73
2024/01/29 02:58:47;;;;;;;10.25;5.95;;;;;;;2.45;60.98;96594.72;5047559;28;20578;-72
2024/01/29 03:01:12;;;;;;;8.07;6.00;;;;;;;2.46;61.12;96593.56;5049123;28;20040;-72
2024/01/29 03:03:38;;;;;;;10.88;5.40;;;;;;;2.44;61.23;96599.34;5047256;28;20029;-72
2024/01/29 03:06:03;;;;;;;8.65;6.07;;;;;;;2.40;61.10;96587.59;5048956;28;20028;-72
2024/01/29 03:08:29;;;;;;;8.20;6.03;;;;;;;2.42;61.19;96595.41;5045750;28;20098;-71
2024/01/29 03:10:54;;;;;;;7.78;5.90;;;;;;;2.44;61.23;96587.72;5048830;28;20024;-71
2024/01/29 03:13:19;;;;;;;7.47;5.90;;;;;;;2.50;61.01;96586.34;5046800;28;20048;-71
2024/01/29 03:15:45;;;;;;;6.88;5.43;;;;;;;2.56;60.80;96577.59;5047753;28;20163;-72
2024/01/29 03:18:10;;;;;;;8.65;5.50;;;;;;;2.55;60.69;96577.94;5047616;28;20060;-72
2024/01/29 03:20:36;;;;;;;11.85;6.57;;;;;;;2.56;60.81;96579.53;5045685;28;20032;-72
2024/01/29 03:23:01;;;;;;;9.75;6.53;;;;;;;2.65;60.49;96577.47;5047365;28;20397;-72
2024/01/29 03:25:27;;;;;;;9.15;6.03;;;;;;;2.55;60.74;96572.53;5045731;28;20060;-72
2024/01/29 03:27:53;;;;;;;10.05;6.22;;;;;;;2.50;60.97;96575.47;5047261;28;20025;-72
2024/01/29 03:30:18;;;;;;;8.80;5.82;;;;;;;2.55;60.77;96575.22;5045739;28;20104;-72
2024/01/29 03:32:44;;;;;;;8.02;6.15;;;;;;;2.60;60.85;96575.00;5046456;28;20206;-72
2024/01/29 03:35:10;;;;;;;9.48;6.03;;;;;;;2.58;60.78;96578.06;5046975;28;20380;-72
2024/01/29 03:37:35;;;;;;;8.93;5.57;;;;;;;2.56;60.76;96582.25;5046887;28;20373;-72
2024/01/29 03:40:04;;;;;;;10.07;5.97;;;;;;;2.56;60.87;96577.59;5046789;28;20164;-71
2024/01/29 03:42:29;;;;;;;12.30;6.35;;;;;;;2.53;60.76;96581.00;5046419;28;20086;-72
2024/01/29 03:44:55;;;;;;;9.82;6.38;;;;;;;2.45;60.93;96570.28;5048299;28;20534;-72
2024/01/29 03:47:20;;;;;;;11.43;6.15;;;;;;;2.47;60.98;96576.19;5045056;28;20029;-72
2024/01/29 03:49:45;;;;;;;11.77;6.60;;;;;;;2.52;60.92;96584.84;5046619;28;20025;-72
2024/01/29 03:52:11;;;;;;;10.45;6.20;;;;;;;2.48;60.85;96586.69;5046161;28;20518;-72
2024/01/29 03:54:36;;;;;;;8.80;6.32;;;;;;;2.55;60.77;96595.03;5045527;28;20506;-71
2024/01/29 03:57:01;;;;;;;10.05;6.32;;;;;;;2.50;60.69;96578.97;5046894;28;20013;-71
2024/01/29 03:59:27;;;;;;;11.88;6.07;;;;;;;2.54;60.74;96571.72;5045040;28;20442;-71
2024/01/29 04:01:52;;;;;;;9.82;6.43;;;;;;;2.59;60.63;96573.41;5046432;28;20033;-73
2024/01/29 04:04:18;;;;;;;10.50;6.13;;;;;;;2.60;60.53;96581.22;5046298;28;20025;-71
2024/01/29 04:06:45;;;;;;;8.88;6.22;;;;;;;2.61;60.65;96577.34;5046390;28;20487;-72
2024/01/29 04:09:12;;;;;;;11.18;7.25;;;;;;;2.58;60.42;96567.19;5047006;28;20507;-71
2024/01/29 04:11:38;;;;;;;9.90;6.85;;;;;;;2.60;60.54;96577.72;5045714;28;20047;-72
2024/01/29 04:14:03;;;;;;;14.32;8.23;;;;;;;2.62;60.52;96573.50;5046315;28;20036;-71
2024/01/29 04:16:29;;;;;;;12.23;7.80;;;;;;;2.66;60.51;96576.31;5044818;28;20021;-73
2024/01/29 04:18:55;;;;;;;13.38;8.70;;;;;;;2.60;60.56;96581.22;5047410;28;20024;-72
2024/01/29 04:21:20;;;;;;;11.10;7.65;;;;;;;2.60;60.55;96573.06;5046051;28;20389;-73
2024/01/29 04:23:45;;;;;;;14.07;8.52;;;;;;;2.58;60.53;96583.50;5046033;28;20029;-73
2024/01/29 04:26:11;;;;;;;12.73;8.45;;;;;;;2.58;60.55;96593.53;5044506;28;20199;-72
2024/01/29 04:28:36;;;;;;;14.82;9.68;;;;;;;2.55;60.81;96588.81;5047342;28;20086;-71
2024/01/29 04:31:02;;;;;;;12.57;8.95;;;;;;;2.55;61.06;96591.53;5047170;28;20039;-71
2024/01/29 04:33:27;;;;;;;12.48;8.15;;;;;;;2.51;60.93;96593.34;5046507;28;20079;-72
2024/01/29 04:35:53;;;;;;;16.05;8.68;;;;;;;2.58;60.84;96593.53;5046932;28;20057;-73
2024/01/29 04:38:18;;;;;;;13.85;8.73;;;;;;;2.53;61.05;96591.88;5027663;28;20436;-72
2024/01/29 04:40:43;;;;;;;9.80;7.45;;;;;;;2.59;60.82;96597.84;5046665;28;20122;-70
2024/01/29 04:43:09;;;;;;;9.38;6.10;;;;;;;2.58;60.68;96596.25;5043833;28;20055;-72
2024/01/29 04:45:34;;;;;;;12.95;7.10;;;;;;;2.59;60.44;96603.28;5045613;28;20446;-71
2024/01/29 04:48:00;;;;;;;13.75;7.13;;;;;;;2.60;60.32;96602.94;5044499;28;20055;-72
2024/01/29 04:50:25;;;;;;;12.13;8.27;;;;;;;2.58;60.48;96609.81;5045346;28;20033;-72
2024/01/29 04:52:50;;;;;;;8.52;6.22;;;;;;;2.61;60.41;96614.56;5045268;28;20039;-71
2024/01/29 04:55:16;;;;;;;10.52;6.60;;;;;;;2.54;60.35;96619.81;5044326;28;20384;-71
2024/01/29 04:57:41;;;;;;;11.23;6.93;;;;;;;2.45;60.86;96616.44;5046838;28;20028;-72
2024/01/29 05:00:08;;;;;;;9.65;7.10;;;;;;;2.47;60.71;96630.47;5043985;28;20120;-73
2024/01/29 05:02:34;;;;;;;10.93;7.72;;;;;;;2.45;61.00;96628.06;5045294;28;20032;-71
2024/01/29 05:04:59;;;;;;;11.35;7.38;;;;;;;2.43;61.03;96637.72;5044113;28;20029;-72
2024/01/29 05:07:26;;;;;;;12.43;7.85;;;;;;;2.45;61.22;96635.44;5045670;28;20024;-71
2024/01/29 05:09:51;;;;;;;10.88;6.85;;;;;;;2.51;61.21;96632.13;5046056;28;20025;-71
2024/01/29 05:12:17;;;;;;;13.75;7.75;;;;;;;2.54;60.96;96630.66;5043979;28;20117;-71
2024/01/29 05:14:42;;;;;;;9.98;7.32;;;;;;;2.54;61.06;96636.88;5046706;28;20033;-72
2024/01/29 05:17:09;;;;;;;13.38;7.55;;;;;;;2.58;60.87;96639.69;5045387;28;20367;-72
2024/01/29 05:19:34;;;;;;;12.82;7.88;;;;;;;2.59;61.05;96644.81;5028863;28;20037;-72
2024/01/29 05:22:01;;;;;;;14.13;8.85;;;;;;;2.58;60.88;96642.41;5027319;28;20116;-71
2024/01/29 05:24:27;;;;;;;12.38;7.97;;;;;;;2.61;60.94;96647.94;5046841;28;20021;-71
2024/01/29 05:26:52;;;;;;;9.93;7.53;;;;;;;2.57;61.20;96646.25;5045629;28;20411;-71
2024/01/29 05:29:18;;;;;;;15.75;8.82;;;;;;;2.61;60.92;96649.88;5044763;28;20056;-71
2024/01/29 05:31:43;;;;;;;11.32;8.00;;;;;;;2.61;60.82;96653.38;5045307;28;20021;-72
2024/01/29 05:34:09;;;;;;;11.45;8.40;;;;;;;2.60;60.83;96648.31;5043916;28;20024;-71
2024/01/29 05:36:35;;;;;;;15.13;9.48;;;;;;;2.57;60.94;96644.34;5045288;28;20021;-71
2024/01/29 05:39:00;;;;;;;19.05;11.00;;;;;;;2.65;61.22;96657.00;5043556;28;20028;-71
2024/01/29 05:41:26;;;;;;;19.65;11.05;;;;;;;2.63;61.30;96666.59;5045321;28;20032;-73
2024/01/29 05:43:51;;;;;;;25.85;14.57;;;;;;;2.65;61.20;96664.34;5026989;28;20112;-72
2024/01/29 05:46:17;;;;;;;27.23;14.52;;;;;;;2.67;61.21;96659.38;5046373;28;20244;-73
2024/01/29 05:48:42;;;;;;;26.98;14.15;;;;;;;2.62;61.05;96656.88;5044072;28;20128;-72
2024/01/29 05:51:07;;;;;;;27.75;14.02;;;;;;;2.61;61.37;96666.97;5045616;28;20036;-73
2024/01/29 05:53:33;;;;;;;26.67;14.30;;;;;;;2.65;61.55;96667.06;5030800;28;20036;-72
2024/01/29 05:55:58;;;;;;;22.73;14.38;;;;;;;2.65;61.59;96664.34;5048497;28;20035;-73
2024/01/29 05:58:24;;;;;;;23.02;14.15;;;;;;;2.65;61.65;96661.66;5048896;28;20048;-73
2024/01/29 06:00:49;;;;;;;24.10;13.43;;;;;;;2.59;62.03;96658.38;5048302;28;20514;-73
2024/01/29 06:03:16;;;;;;;23.65;13.43;;;;;;;2.62;62.25;96663.09;5048784;28;20021;-72
2024/01/29 06:05:41;;;;;;;22.42;13.18;;;;;;;2.62;62.08;96657.66;5047816;28;20040;-73
2024/01/29 06:08:07;;;;;;;25.63;13.90;;;;;;;2.68;62.04;96663.66;5031426;28;20036;-73
2024/01/29 06:10:32;;;;;;;22.63;13.82;;;;;;;2.64;61.87;96660.06;5048465;28;20101;-73
2024/01/29 06:12:58;;;;;;;24.25;12.00;;;;;;;2.67;61.73;96667.50;5046773;28;20124;-73
2024/01/29 06:15:23;;;;;;;20.85;12.63;;;;;;;2.73;61.71;96674.28;5049954;28;20064;-73
2024/01/29 06:17:48;;;;;;;18.80;12.15;;;;;;;2.76;61.51;96668.19;5046755;28;20025;-73
2024/01/29 06:20:14;;;;;;;21.15;13.60;;;;;;;2.75;61.69;96680.16;5049897;28;20075;-72
2024/01/29 06:22:39;;;;;;;22.33;12.35;;;;;;;2.74;61.75;96678.56;5046528;28;20025;-74
2024/01/29 06:25:05;;;;;;;21.13;12.20;;;;;;;2.75;61.90;96684.78;5049579;28;20038;-73
2024/01/29 06:27:30;;;;;;;20.27;12.32;;;;;;;2.74;62.11;96686.72;5047811;28;20044;-75
2024/01/29 06:29:56;;;;;;;20.73;12.23;;;;;;;2.69;62.36;96676.09;5046805;28;20029;-73
2024/01/29 06:32:21;;;;;;;19.33;12.57;;;;;;;2.76;62.04;96684.47;5048137;28;20029;-73
2024/01/29 06:34:47;;;;;;;19.50;12.48;;;;;;;2.81;61.87;96691.56;5029646;28;20036;-74
2024/01/29 06:37:12;;;;;;;18.95;11.70;;;;;;;2.77;61.97;96683.34;5049583;28;20033;-73
2024/01/29 06:39:38;;;;;;;20.33;11.70;;;;;;;2.81;61.70;96683.41;5047305;28;20037;-74
2024/01/29 06:42:03;;;;;;;19.23;12.13;;;;;;;2.78;61.61;96678.69;5049433;28;20032;-73
2024/01/29 06:44:29;;;;;;;20.50;11.57;;;;;;;2.83;61.53;96692.03;5048903;28;20047;-73
2024/01/29 06:46:55;;;;;;;18.52;12.05;;;;;;;2.84;61.40;96702.53;5048520;28;20029;-73
2024/01/29 06:49:30;;;;;;;19.23;13.25;;;;;;;2.84;61.34;96699.84;5049000;28;20049;-73
2024/01/29 06:51:55;;;;;;;18.63;12.32;;;;;;;2.85;61.50;96701.41;5046020;28;20458;-74
2024/01/29 06:54:20;;;;;;;18.95;12.35;;;;;;;2.85;61.39;96698.69;5048003;28;20029;-74
2024/01/29 06:56:46;;;;;;;20.80;12.07;;;;;;;2.85;61.70;96706.06;5046087;28;20029;-73
2024/01/29 06:59:13;;;;;;;18.67;12.80;;;;;;;2.83;61.43;96702.91;5049255;28;20471;-73
2024/01/29 07:01:38;;;;;;;17.83;12.15;;;;;;;2.85;61.28;96700.63;5046352;28;20473;-73
2024/01/29 07:04:04;;;;;;;20.23;13.23;;;;;;;2.88;61.22;96699.94;5046742;28;20033;-73
2024/01/29 07:06:29;;;;;;;17.63;12.85;;;;;;;2.88;61.03;96700.72;5049033;28;20029;-73
2024/01/29 07:08:55;;;;;;;17.63;12.23;;;;;;;2.84;61.15;96699.03;5046184;28;20048;-72
2024/01/29 07:11:20;;;;;;;20.55;11.85;;;;;;;2.90;61.22;96703.88;5047535;28;20036;-73
2024/01/29 07:13:45;;;;;;;22.58;12.75;;;;;;;2.93;61.08;96703.22;5046984;28;20032;-73
2024/01/29 07:16:11;;;;;;;18.30;12.15;;;;;;;2.90;60.96;96698.44;5031046;28;20029;-73
2024/01/29 07:18:37;;;;;;;15.68;10.65;;;;;;;2.97;60.39;96702.50;5045956;28;20029;-73
2024/01/29 07:21:03;;;;;;;14.63;9.18;;;;;;;3.00;59.65;96709.97;5048862;28;20028;-74
2024/01/29 07:23:28;;;;;;;15.07;10.38;;;;;;;3.00;59.04;96707.25;5046629;28;20094;-73
2024/01/29 07:25:54;;;;;;;18.70;11.20;;;;;;;2.94;58.94;96687.69;5047633;28;20025;-73
2024/01/29 07:28:19;;;;;;;20.48;12.60;;;;;;;3.04;58.96;96708.13;5048818;28;20112;-73
2024/01/29 07:30:44;;;;;;;22.83;13.05;;;;;;;3.04;58.99;96710.84;5046751;28;20025;-73
2024/01/29 07:33:11;;;;;;;24.17;14.98;;;;;;;3.12;58.66;96704.50;5048635;28;20032;-73
2024/01/29 07:35:37;;;;;;;31.67;19.20;;;;;;;3.24;58.88;96709.09;5047074;28;20040;-75
2024/01/29 07:38:02;;;;;;;32.65;18.35;;;;;;;3.27;59.40;96708.38;5047980;28;20033;-74
2024/01/29 07:40:27;;;;;;;36.85;19.27;;;;;;;3.20;59.73;96700.84;5045612;28;20029;-79
2024/01/29 07:42:53;;;;;;;33.83;17.80;;;;;;;3.25;59.93;96706.03;5046507;28;20036;-75
2024/01/29 07:45:18;;;;;;;27.63;17.45;;;;;;;3.28;59.89;96702.63;5046699;28;20029;-74
2024/01/29 07:47:44;;;;;;;27.75;15.85;;;;;;;3.39;59.39;96713.78;5046722;28;20049;-74
2024/01/29 07:50:10;;;;;;;27.17;15.38;;;;;;;3.28;59.79;96710.00;5048170;28;20040;-74
2024/01/29 07:52:36;;;;;;;26.50;14.77;;;;;;;3.30;59.76;96697.63;5045155;28;20033;-74
2024/01/29 07:55:01;;;;;;;21.77;13.63;;;;;;;3.26;59.86;96706.81;5047097;28;20116;-75
2024/01/29 07:57:27;;;;;;;24.50;13.75;;;;;;;3.30;60.11;96713.16;5045301;28;20121;-74
2024/01/29 07:59:52;;;;;;;17.83;10.93;;;;;;;3.31;60.07;96712.78;5048095;28;20021;-75
2024/01/29 08:02:18;;;;;;;24.25;12.15;;;;;;;3.32;59.84;96711.66;5047610;28;20033;-74
2024/01/29 08:04:43;;;;;;;23.95;13.40;;;;;;;3.29;59.50;96698.75;5047149;28;20468;-76
2024/01/29 08:07:08;;;;;;;20.95;12.63;;;;;;;3.46;59.08;96719.41;5046908;28;20040;-74
2024/01/29 08:09:34;;;;;;;19.33;11.30;;;;;;;3.43;58.95;96720.09;5046247;28;20115;-74
2024/01/29 08:11:59;;;;;;;19.02;12.20;;;;;;;3.40;59.01;96720.81;5046057;28;20508;-76
2024/01/29 08:14:25;;;;;;;19.13;12.07;;;;;;;3.45;59.01;96729.50;5046078;28;20029;-75
2024/01/29 08:16:51;;;;;;;20.23;12.15;;;;;;;3.51;58.79;96730.06;5048114;28;20040;-74
2024/01/29 08:19:17;;;;;;;16.70;10.98;;;;;;;3.50;58.70;96728.47;5045291;28;20082;-75
2024/01/29 08:21:42;;;;;;;22.70;11.63;;;;;;;3.51;58.63;96730.06;5046137;28;20470;-74
2024/01/29 08:24:08;;;;;;;20.75;12.15;;;;;;;3.64;58.38;96736.22;5047104;28;20107;-75
2024/01/29 08:26:33;;;;;;;22.13;12.63;;;;;;;3.70;57.98;96735.59;5046424;28;20083;-76
2024/01/29 08:28:59;;;;;;;18.58;12.70;;;;;;;3.84;57.83;96737.94;5045969;28;20040;-73
2024/01/29 08:31:24;;;;;;;18.00;12.18;;;;;;;3.89;57.42;96740.38;5045940;28;20039;-71
2024/01/29 08:33:50;;;;;;;18.77;13.02;;;;;;;3.92;57.25;96738.88;5029466;28;20031;-72
2024/01/29 08:36:16;;;;;;;19.42;12.05;;;;;;;3.98;57.37;96745.66;5044636;28;20025;-73
2024/01/29 08:38:42;;;;;;;20.65;12.68;;;;;;;4.05;57.05;96739.59;5046070;28;20025;-72
2024/01/29 08:41:07;;;;;;;22.33;13.05;;;;;;;4.16;56.86;96737.94;5028466;28;20105;-73
2024/01/29 08:43:33;;;;;;;23.70;13.02;;;;;;;4.28;56.55;96740.56;5028787;28;20028;-73
2024/01/29 08:45:58;;;;;;;20.15;12.38;;;;;;;4.51;55.91;96751.59;5029269;28;20483;-73
2024/01/29 08:48:24;;;;;;;18.85;11.82;;;;;;;4.75;55.19;96754.09;5045524;28;20037;-71
2024/01/29 08:50:49;;;;;;;19.08;11.43;;;;;;;5.39;53.62;96756.63;5045840;28;20107;-72
2024/01/29 08:53:15;;;;;;;18.08;11.80;;;;;;;5.84;52.22;96756.75;5045767;28;20033;-72
2024/01/29 08:55:40;;;;;;;18.33;11.05;;;;;;;6.15;51.04;96754.22;5045949;28;20433;-73
2024/01/29 08:58:05;;;;;;;18.50;12.00;;;;;;;6.11;50.84;96745.94;5044647;28;20035;-72
2024/01/29 09:00:32;;;;;;;16.30;10.70;;;;;;;6.08;51.18;96750.19;5047349;28;20078;-73
2024/01/29 09:02:57;;;;;;;16.40;9.32;;;;;;;6.21;50.52;96750.03;5045319;28;20017;-73
2024/01/29 09:05:23;;;;;;;18.10;10.35;;;;;;;6.16;50.13;96744.84;5046597;28;20025;-74
2024/01/29 09:07:48;;;;;;;11.43;8.15;;;;;;;6.16;49.60;96740.19;5065777;28;20451;-72
2024/01/29 09:10:14;;;;;;;11.70;7.95;;;;;;;6.07;50.28;96748.59;5065597;28;20074;-72
2024/01/29 09:12:39;;;;;;;13.35;8.93;;;;;;;6.03;50.48;96755.97;5067216;28;20123;-72
2024/01/29 09:15:05;;;;;;;13.40;8.45;;;;;;;5.99;50.25;96752.38;5065408;28;20431;-74
2024/01/29 09:17:31;;;;;;;14.50;8.02;;;;;;;5.95;50.00;96745.25;5067317;28;20503;-72
2024/01/29 09:19:57;;;;;;;16.27;9.43;;;;;;;5.93;49.85;96745.63;5064731;28;20120;-73
2024/01/29 09:22:23;;;;;;;15.40;9.18;;;;;;;5.83;50.35;96748.91;5065052;28;20028;-72
2024/01/29 09:24:48;;;;;;;11.70;8.85;;;;;;;5.85;49.32;96752.09;5049043;28;20033;-72
2024/01/29 09:27:13;;;;;;;13.98;8.98;;;;;;;5.65;49.65;96747.81;5065801;28;20025;-70
2024/01/29 09:29:39;;;;;;;13.52;9.40;;;;;;;5.49;50.18;96750.59;5069681;28;20361;-72
2024/01/29 09:32:05;;;;;;;15.63;9.95;;;;;;;5.38;51.02;96736.75;5058639;28;20087;-73
2024/01/29 09:34:30;;;;;;;17.50;10.10;;;;;;;5.39;50.93;96751.19;5050645;28;20029;-74
2024/01/29 09:36:56;;;;;;;22.17;11.30;;;;;;;5.38;51.05;96753.13;5047431;28;20090;-73
2024/01/29 09:39:23;;;;;;;17.17;8.93;;;;;;;5.39;50.80;96751.19;5050357;28;20498;-73
2024/01/29 09:41:50;;;;;;;11.60;7.22;;;;;;;5.36;50.05;96746.44;5059930;28;20067;-72
2024/01/29 09:44:15;;;;;;;13.32;8.25;;;;;;;5.29;50.29;96742.44;5051578;28;20503;-74
2024/01/29 09:46:41;;;;;;;16.17;9.45;;;;;;;5.31;50.55;96742.84;5069612;28;20028;-72
2024/01/29 09:49:07;;;;;;;13.38;8.57;;;;;;;5.35;50.54;96736.69;5067307;28;20412;-74
2024/01/29 09:51:33;;;;;;;15.55;8.23;;;;;;;5.26;50.42;96736.91;5069260;28;20028;-72
2024/01/29 09:54:03;;;;;;;13.23;8.98;;;;;;;5.25;50.55;96740.78;5067275;28;20024;-73
2024/01/29 09:56:29;;;;;;;12.07;8.70;;;;;;;5.23;50.17;96734.91;5052533;28;20067;-73
2024/01/29 09:58:55;;;;;;;10.10;7.45;;;;;;;5.19;49.56;96726.63;5051365;28;20398;-71
2024/01/29 10:01:21;;;;;;;13.23;7.80;;;;;;;5.17;49.00;96730.88;5051424;28;20034;-73
2024/01/29 10:03:47;;;;;;;9.95;7.65;;;;;;;5.23;48.84;96734.91;5069006;28;20359;-73
2024/01/29 10:06:12;;;;;;;11.25;7.10;;;;;;;5.19;47.96;96734.81;5068404;28;20035;-72
2024/01/29 10:08:38;;;;;;;12.45;7.35;;;;;;;5.19;47.33;96734.03;5069057;28;20021;-73
2024/01/29 10:11:04;;;;;;;10.90;6.85;;;;;;;5.27;47.14;96735.75;5067014;28;20028;-72
2024/01/29 10:13:29;;;;;;;11.25;7.78;;;;;;;5.30;47.10;96727.66;5068867;28;20035;-71
2024/01/29 10:15:56;;;;;;;15.35;7.82;;;;;;;5.31;47.56;96728.44;5067370;28;20029;-72
2024/01/29 10:18:22;;;;;;;13.35;8.38;;;;;;;5.33;47.70;96729.66;5068449;28;20035;-72
2024/01/29 10:20:57;;;;;;;13.07;8.20;;;;;;;5.37;47.81;96727.00;5069901;28;20036;-72
2024/01/29 10:23:23;;;;;;;12.27;7.38;;;;;;;5.37;47.85;96724.28;5067198;28;20025;-72
2024/01/29 10:25:54;;;;;;;14.65;8.27;;;;;;;5.38;47.21;96728.56;5069951;28;20097;-72
2024/01/29 10:28:20;;;;;;;13.30;7.60;;;;;;;5.32;46.84;96721.81;5068131;28;20411;-74
2024/01/29 10:30:45;;;;;;;12.25;7.50;;;;;;;5.37;46.66;96724.28;5069881;28;20040;-71
2024/01/29 10:33:11;;;;;;;9.90;5.35;;;;;;;5.32;45.04;96719.09;5067001;28;20035;-72
2024/01/29 10:35:36;;;;;;;7.13;4.40;;;;;;;5.38;43.76;96714.16;5068038;28;20048;-72
2024/01/29 10:38:05;;;;;;;4.60;3.17;;;;;;;5.40;43.18;96715.38;5067957;28;20098;-71
2024/01/29 10:40:31;;;;;;;13.00;4.00;;;;;;;5.38;42.96;96709.47;5065901;28;20509;-72
2024/01/29 10:43:01;;;;;;;4.93;2.88;;;;;;;5.42;42.38;96707.63;5051174;28;20039;-71
2024/01/29 10:45:27;;;;;;;3.55;2.58;;;;;;;5.43;42.15;96711.13;5049772;28;20048;-73
2024/01/29 10:48:22;;;;;;;3.30;2.38;;;;;;;5.36;42.47;96713.72;5069083;28;20049;-71
2024/01/29 10:50:49;;;;;;;5.93;2.88;;;;;;;5.32;42.14;96705.47;5066367;28;20064;-72
2024/01/29 10:53:17;;;;;;;5.68;3.28;;;;;;;5.31;42.23;96701.16;5047096;28;20147;-74
2024/01/29 10:55:50;;;;;;;5.97;3.97;;;;;;;5.36;42.47;96705.53;5046702;28;20118;-72
2024/01/29 10:58:16;;;;;;;6.03;3.90;;;;;;;5.34;42.52;96700.47;5044881;28;20519;-72
2024/01/29 11:00:44;;;;;;;7.47;3.67;;;;;;;5.44;42.17;96702.56;5030038;28;20860;-74
2024/01/29 11:03:10;;;;;;;6.93;2.83;;;;;;;5.39;42.72;96697.44;5044695;28;20040;-74
2024/01/29 11:05:40;;;;;;;4.72;2.75;;;;;;;5.39;41.82;96694.72;5046644;28;20025;-73
2024/01/29 11:08:11;;;;;;;3.78;2.55;;;;;;;5.32;42.19;96691.81;5045511;28;20069;-73
2024/01/29 11:10:37;;;;;;;3.97;2.65;;;;;;;5.32;42.31;96691.81;5044793;28;20446;-72
2024/01/29 11:13:03;;;;;;;5.60;3.08;;;;;;;5.35;42.30;96691.13;5050302;28;20529;-72
2024/01/29 11:15:29;;;;;;;5.45;3.00;;;;;;;5.37;42.49;96686.09;5047809;28;20157;-73
2024/01/29 11:17:58;;;;;;;6.18;3.00;;;;;;;5.35;42.58;96676.69;5049639;28;20036;-73
2024/01/29 11:20:24;;;;;;;7.93;3.53;;;;;;;5.42;42.62;96679.56;5064793;28;20750;-73
2024/01/29 11:22:57;;;;;;;7.78;4.45;;;;;;;5.41;42.39;96676.03;5066409;28;20037;-74
2024/01/29 11:25:22;;;;;;;6.03;3.70;;;;;;;5.45;42.59;96673.34;5065801;28;20058;-73
2024/01/29 11:27:49;;;;;;;5.10;3.40;;;;;;;5.44;42.23;96672.56;5050986;28;20628;-73